Terminal Aerodrome Forecast
Issued by NWS

Home | Current Version | Previous Version | Text Only | Print | Product List | Glossary On
Versions: 1 2 3 4 5 6 7 8 9 10 11 12 13 14 15 16 17
000
FTUS46 KLOX 202300 RRA
TAFOXR
TAF
KOXR 202340Z 2100/2124 28010KT P6SM FEW015 BKN025
     FM210300 27008KT P6SM BKN040 BKN120
     FM211000 36006KT P6SM VCSH SCT050 BKN100
     FM211500 01010KT P6SM SCT250
     FM211800 36005KT P6SM SCT250
     FM212000 27011KT P6SM SCT250=

USA.gov is the U.S. government's official web portal to all federal, state and local government web resources and services.